Bamberg, Germany

1:56 AM CET on December 26, 2014 (GMT +0100)
IBAYERNF3 | Change Station
CLOSE
Current Station
Personal Weather Station
Location: Frensdorf, BAYERN
Elevation: 830 ft
Nearby Weather Stations
Active Advisory: Snow/Ice 5-10 cm Neuschnee

Elev 830 ft 49.82 °N, 10.86 °E | Updated 44 seconds ago

Mostly Cloudy
Mostly Cloudy
35.4 °F
Feels Like 35 °F
N
2.0
Wind Variable Wind from WSW
Gusts 7.0 mph

Today
High -- | Low -- °F
--% Chance of Precip.
Yesterday
High -- | Low -- °F
Precip. -- in
8:13 AM 4:20 PM
Waxing Crescent, 20% visible
Pressure 30.30 in
Visibility 6.2 miles
Clouds Few 3700 ft
Mostly Cloudy 5600 ft
Windchill 35 °F
Dew Point 30 °F
Humidity 80%
Rainfall 0.00 in
Snow Depth Not available.
UV 0.0 out of 12
Pollen Not available.
Air Quality Not available.
Flu Activity Not available.
METAR EDDN 260050Z 28008KT 9999 FEW037 BKN056 02/M00 Q1026

More Conditions Fewer Conditions

Pressure 30.30 in
Visibility 6.2 miles
Clouds Few 3700 ft
Mostly Cloudy 5600 ft
Windchill 35 °F
Dew Point 30 °F
Humidity 80%
Rainfall 0.00 in
Snow Depth Not available.
UV 0.0 out of 12
Pollen Not available.
Air Quality Not available.
Flu Activity Not available.
METAR EDDN 260050Z 28008KT 9999 FEW037 BKN056 02/M00 Q1026

More Conditions Fewer Conditions

10-Day Weather Forecast

Almanac

Astronomy

Dec. 26, 2014 Rise Set
Actual Time
Civil Twilight
Nautical Twilight
Astronomical Twilight
Moon
Length of Visible Light
Length of Day
Tomorrow will be .
, % of the Moon is Illuminated

Today's Extremes

Country Highs Country Lows

Community

WunderPhotos

Upload Photos

1,780,483 photos uploaded!

WunderBlogs® & News

Nearby

Air Quality

  Air Quality AQ Index Pollutant
Not available.

Snow Depth

Station Depth Elevation

Earthquake Activity

City Distance Mag. Time & Date
Minimum magnitude displayed is 2.5.

Coastal Water Temperatures

Place Temperature

Nearby Weather Stations